sensor_id;sensor_type;location;lat;lon;timestamp;pressure;altitude;pressure_sealevel;temperature;humidity
70684;BME280;58263;48.146;11.440;2023-01-31T00:00:55;96354.88;;;1.60;74.53
70684;BME280;58263;48.146;11.440;2023-01-31T00:03:20;96347.63;;;1.62;74.41
70684;BME280;58263;48.146;11.440;2023-01-31T00:05:45;96342.47;;;1.61;74.58
70684;BME280;58263;48.146;11.440;2023-01-31T00:08:11;96340.69;;;1.61;74.54
70684;BME280;58263;48.146;11.440;2023-01-31T00:10:38;96345.97;;;1.61;74.78
70684;BME280;58263;48.146;11.440;2023-01-31T00:13:03;96341.50;;;1.62;74.73
70684;BME280;58263;48.146;11.440;2023-01-31T00:15:29;96343.97;;;1.63;74.56
70684;BME280;58263;48.146;11.440;2023-01-31T00:17:54;96354.53;;;1.63;74.73
70684;BME280;58263;48.146;11.440;2023-01-31T00:20:20;96336.84;;;1.56;74.56
70684;BME280;58263;48.146;11.440;2023-01-31T00:22:45;96340.00;;;1.59;74.47
70684;BME280;58263;48.146;11.440;2023-01-31T00:25:10;96340.69;;;1.61;74.52
70684;BME280;58263;48.146;11.440;2023-01-31T00:27:36;96333.72;;;1.60;74.79
70684;BME280;58263;48.146;11.440;2023-01-31T00:30:01;96346.28;;;1.58;74.79
70684;BME280;58263;48.146;11.440;2023-01-31T00:32:27;96355.84;;;1.59;74.81
70684;BME280;58263;48.146;11.440;2023-01-31T00:34:53;96346.59;;;1.55;74.60
70684;BME280;58263;48.146;11.440;2023-01-31T00:37:19;96340.16;;;1.58;74.71
70684;BME280;58263;48.146;11.440;2023-01-31T00:39:45;96337.66;;;1.56;74.75
70684;BME280;58263;48.146;11.440;2023-01-31T00:42:10;96333.72;;;1.60;74.87
70684;BME280;58263;48.146;11.440;2023-01-31T00:44:35;96338.66;;;1.55;74.81
70684;BME280;58263;48.146;11.440;2023-01-31T00:47:01;96343.81;;;1.65;74.68
70684;BME280;58263;48.146;11.440;2023-01-31T00:49:26;96334.38;;;1.54;75.10
70684;BME280;58263;48.146;11.440;2023-01-31T00:51:51;96326.13;;;1.57;75.21
70684;BME280;58263;48.146;11.440;2023-01-31T00:54:17;96323.63;;;1.56;75.13
70684;BME280;58263;48.146;11.440;2023-01-31T00:56:42;96327.91;;;1.57;75.35
70684;BME280;58263;48.146;11.440;2023-01-31T00:59:09;96323.13;;;1.52;75.58
70684;BME280;58263;48.146;11.440;2023-01-31T01:01:35;96327.63;;;1.60;75.22
70684;BME280;58263;48.146;11.440;2023-01-31T01:04:00;96327.09;;;1.56;75.35
70684;BME280;58263;48.146;11.440;2023-01-31T01:06:26;96331.03;;;1.52;75.08
70684;BME280;58263;48.146;11.440;2023-01-31T01:08:52;96332.03;;;1.51;75.29
70684;BME280;58263;48.146;11.440;2023-01-31T01:11:21;96330.38;;;1.50;75.31
70684;BME280;58263;48.146;11.440;2023-01-31T01:13:47;96330.06;;;1.53;75.13
70684;BME280;58263;48.146;11.440;2023-01-31T01:16:22;96336.00;;;1.55;75.24
70684;BME280;58263;48.146;11.440;2023-01-31T01:18:48;96336.34;;;1.52;75.26
70684;BME280;58263;48.146;11.440;2023-01-31T01:21:16;96336.00;;;1.55;75.26
70684;BME280;58263;48.146;11.440;2023-01-31T01:23:42;96335.66;;;1.50;75.71
70684;BME280;58263;48.146;11.440;2023-01-31T01:26:22;96336.81;;;1.47;75.39
70684;BME280;58263;48.146;11.440;2023-01-31T01:28:48;96347.53;;;1.46;75.38
70684;BME280;58263;48.146;11.440;2023-01-31T01:31:15;96354.47;;;1.47;75.28
70684;BME280;58263;48.146;11.440;2023-01-31T01:33:41;96352.81;;;1.46;75.40
70684;BME280;58263;48.146;11.440;2023-01-31T01:36:08;96347.41;;;1.47;75.50
70684;BME280;58263;48.146;11.440;2023-01-31T01:38:46;96346.56;;;1.47;75.52
70684;BME280;58263;48.146;11.440;2023-01-31T01:41:12;96347.03;;;1.42;75.78
70684;BME280;58263;48.146;11.440;2023-01-31T01:44:04;96359.13;;;1.45;75.58
70684;BME280;58263;48.146;11.440;2023-01-31T01:46:32;96356.91;;;1.40;75.81
70684;BME280;58263;48.146;11.440;2023-01-31T01:49:23;96361.38;;;1.40;75.94
70684;BME280;58263;48.146;11.440;2023-01-31T01:51:54;96351.31;;;1.35;75.91
70684;BME280;58263;48.146;11.440;2023-01-31T01:54:27;96367.66;;;1.39;76.10
70684;BME280;58263;48.146;11.440;2023-01-31T01:56:55;96366.34;;;1.43;75.86
70684;BME280;58263;48.146;11.440;2023-01-31T01:59:36;96365.34;;;1.35;76.26
70684;BME280;58263;48.146;11.440;2023-01-31T02:02:02;96370.97;;;1.41;76.24
70684;BME280;58263;48.146;11.440;2023-01-31T02:04:33;96362.00;;;1.33;76.44
70684;BME280;58263;48.146;11.440;2023-01-31T02:07:00;96373.88;;;1.29;76.23
70684;BME280;58263;48.146;11.440;2023-01-31T02:09:48;96369.66;;;1.37;76.29
70684;BME280;58263;48.146;11.440;2023-01-31T02:12:16;96373.59;;;1.32;76.57
70684;BME280;58263;48.146;11.440;2023-01-31T02:14:43;96371.56;;;1.26;76.63
70684;BME280;58263;48.146;11.440;2023-01-31T02:17:12;96373.22;;;1.27;76.58
70684;BME280;58263;48.146;11.440;2023-01-31T02:22:24;96364.09;;;1.22;76.88
70684;BME280;58263;48.146;11.440;2023-01-31T02:43:51;96376.19;;;1.24;75.74
70684;BME280;58263;48.146;11.440;2023-01-31T02:46:54;96381.75;;;1.21;75.82
70684;BME280;58263;48.146;11.440;2023-01-31T02:49:32;96391.81;;;1.17;75.98
70684;BME280;58263;48.146;11.440;2023-01-31T02:52:15;96383.75;;;1.19;75.71
70684;BME280;58263;48.146;11.440;2023-01-31T02:55:20;96380.88;;;1.12;76.16
70684;BME280;58263;48.146;11.440;2023-01-31T02:58:06;96385.53;;;1.18;75.67
70684;BME280;58263;48.146;11.440;2023-01-31T03:00:35;96399.59;;;1.19;75.62
70684;BME280;58263;48.146;11.440;2023-01-31T03:03:07;96399.59;;;1.19;75.47
70684;BME280;58263;48.146;11.440;2023-01-31T03:05:36;96396.94;;;1.19;75.66
70684;BME280;58263;48.146;11.440;2023-01-31T03:08:03;96409.47;;;1.17;75.35
70684;BME280;58263;48.146;11.440;2023-01-31T03:10:52;96403.22;;;1.18;75.62
70684;BME280;58263;48.146;11.440;2023-01-31T03:16:17;96410.53;;;1.24;75.23
70684;BME280;58263;48.146;11.440;2023-01-31T03:19:26;96419.22;;;1.16;75.44
70684;BME280;58263;48.146;11.440;2023-01-31T03:22:00;96423.53;;;1.17;75.46
70684;BME280;58263;48.146;11.440;2023-01-31T03:24:28;96422.25;;;1.22;75.30
70684;BME280;58263;48.146;11.440;2023-01-31T03:26:56;96422.03;;;1.15;75.35
70684;BME280;58263;48.146;11.440;2023-01-31T03:29:23;96424.66;;;1.15;75.66
70684;BME280;58263;48.146;11.440;2023-01-31T03:32:07;96417.41;;;1.17;75.13
70684;BME280;58263;48.146;11.440;2023-01-31T03:34:36;96417.50;;;1.07;75.47
70684;BME280;58263;48.146;11.440;2023-01-31T03:37:09;96428.22;;;1.06;75.61
70684;BME280;58263;48.146;11.440;2023-01-31T03:42:06;96440.41;;;0.98;75.55
70684;BME280;58263;48.146;11.440;2023-01-31T03:45:02;96438.72;;;0.97;75.78
70684;BME280;58263;48.146;11.440;2023-01-31T03:47:41;96442.34;;;0.96;75.82
70684;BME280;58263;48.146;11.440;2023-01-31T03:50:12;96447.69;;;1.05;75.53
70684;BME280;58263;48.146;11.440;2023-01-31T03:52:45;96448.16;;;1.00;75.70
70684;BME280;58263;48.146;11.440;2023-01-31T03:55:16;96449.31;;;0.97;75.53
70684;BME280;58263;48.146;11.440;2023-01-31T03:57:45;96450.81;;;1.00;75.47
70684;BME280;58263;48.146;11.440;2023-01-31T04:00:15;96448.59;;;0.95;75.51
70684;BME280;58263;48.146;11.440;2023-01-31T04:02:43;96453.44;;;1.00;75.88
70684;BME280;58263;48.146;11.440;2023-01-31T04:05:17;96450.34;;;1.05;75.45
70684;BME280;58263;48.146;11.440;2023-01-31T04:07:44;96459.06;;;0.97;75.68
70684;BME280;58263;48.146;11.440;2023-01-31T04:10:16;96465.97;;;0.98;75.66
70684;BME280;58263;48.146;11.440;2023-01-31T04:12:43;96475.72;;;0.97;75.51
70684;BME280;58263;48.146;11.440;2023-01-31T04:15:09;96482.34;;;1.01;75.41
70684;BME280;58263;48.146;11.440;2023-01-31T04:17:34;96482.66;;;0.98;75.08
70684;BME280;58263;48.146;11.440;2023-01-31T04:20:00;96478.13;;;0.91;75.19
70684;BME280;58263;48.146;11.440;2023-01-31T04:22:25;96473.00;;;0.89;75.27
70684;BME280;58263;48.146;11.440;2023-01-31T04:24:50;96476.47;;;0.90;75.43
70684;BME280;58263;48.146;11.440;2023-01-31T04:27:16;96479.94;;;0.90;75.53
70684;BME280;58263;48.146;11.440;2023-01-31T04:29:41;96476.19;;;0.93;75.50
70684;BME280;58263;48.146;11.440;2023-01-31T04:32:07;96483.56;;;0.89;75.43
70684;BME280;58263;48.146;11.440;2023-01-31T04:34:32;96482.88;;;0.87;75.32
70684;BME280;58263;48.146;11.440;2023-01-31T04:36:58;96492.84;;;0.93;75.41
70684;BME280;58263;48.146;11.440;2023-01-31T04:39:23;96489.16;;;0.86;75.62
70684;BME280;58263;48.146;11.440;2023-01-31T04:41:48;96490.13;;;0.85;75.60
70684;BME280;58263;48.146;11.440;2023-01-31T04:44:14;96496.38;;;0.84;75.65
70684;BME280;58263;48.146;11.440;2023-01-31T04:46:40;96490.50;;;0.90;75.58
70684;BME280;58263;48.146;11.440;2023-01-31T04:49:05;96504.69;;;0.89;75.36
70684;BME280;58263;48.146;11.440;2023-01-31T04:51:31;96496.63;;;0.91;75.35
70684;BME280;58263;48.146;11.440;2023-01-31T04:53:56;96498.28;;;0.92;75.32
70684;BME280;58263;48.146;11.440;2023-01-31T04:56:21;96511.41;;;0.83;75.35
70684;BME280;58263;48.146;11.440;2023-01-31T04:58:47;96510.13;;;0.88;75.52
70684;BME280;58263;48.146;11.440;2023-01-31T05:01:12;96509.81;;;0.91;75.34
70684;BME280;58263;48.146;11.440;2023-01-31T05:03:38;96516.38;;;0.87;75.21
70684;BME280;58263;48.146;11.440;2023-01-31T05:06:03;96518.44;;;0.93;74.85
70684;BME280;58263;48.146;11.440;2023-01-31T05:08:29;96513.91;;;0.85;74.99
70684;BME280;58263;48.146;11.440;2023-01-31T05:11:01;96512.06;;;0.86;74.93
70684;BME280;58263;48.146;11.440;2023-01-31T05:13:27;96508.31;;;0.88;75.19
70684;BME280;58263;48.146;11.440;2023-01-31T05:15:54;96519.25;;;0.93;74.82
70684;BME280;58263;48.146;11.440;2023-01-31T05:18:22;96522.50;;;0.87;75.12
70684;BME280;58263;48.146;11.440;2023-01-31T05:20:48;96538.06;;;0.90;74.96
70684;BME280;58263;48.146;11.440;2023-01-31T05:23:15;96532.06;;;0.88;75.10
70684;BME280;58263;48.146;11.440;2023-01-31T05:25:41;96528.22;;;0.82;75.12
70684;BME280;58263;48.146;11.440;2023-01-31T05:28:06;96525.13;;;0.87;74.68
70684;BME280;58263;48.146;11.440;2023-01-31T05:30:32;96525.59;;;0.82;74.95
70684;BME280;58263;48.146;11.440;2023-01-31T05:32:57;96524.47;;;0.85;75.09
70684;BME280;58263;48.146;11.440;2023-01-31T05:35:22;96530.72;;;0.84;74.50
70684;BME280;58263;48.146;11.440;2023-01-31T05:37:48;96528.84;;;0.94;74.25
70684;BME280;58263;48.146;11.440;2023-01-31T05:40:15;96532.78;;;0.90;74.59
70684;BME280;58263;48.146;11.440;2023-01-31T05:42:41;96534.41;;;0.91;74.36
70684;BME280;58263;48.146;11.440;2023-01-31T05:45:08;96523.84;;;0.91;74.44
70684;BME280;58263;48.146;11.440;2023-01-31T05:47:35;96530.47;;;0.95;74.24
70684;BME280;58263;48.146;11.440;2023-01-31T05:50:00;96529.44;;;0.88;74.41
70684;BME280;58263;48.146;11.440;2023-01-31T05:52:25;96535.94;;;0.94;74.16
70684;BME280;58263;48.146;11.440;2023-01-31T05:54:51;96536.69;;;0.86;74.39
70684;BME280;58263;48.146;11.440;2023-01-31T05:57:17;96538.09;;;0.80;74.34
70684;BME280;58263;48.146;11.440;2023-01-31T05:59:42;96535.09;;;0.75;74.72
70684;BME280;58263;48.146;11.440;2023-01-31T06:02:08;96549.28;;;0.74;74.75
70684;BME280;58263;48.146;11.440;2023-01-31T06:04:36;96552.72;;;0.75;74.37
70684;BME280;58263;48.146;11.440;2023-01-31T06:07:01;96544.97;;;0.73;74.34
70684;BME280;58263;48.146;11.440;2023-01-31T06:09:27;96524.53;;;0.75;74.45
70684;BME280;58263;48.146;11.440;2023-01-31T06:11:52;96535.59;;;0.79;74.47
70684;BME280;58263;48.146;11.440;2023-01-31T06:14:17;96525.34;;;0.76;74.52
70684;BME280;58263;48.146;11.440;2023-01-31T06:16:43;96532.59;;;0.74;74.23
70684;BME280;58263;48.146;11.440;2023-01-31T06:19:08;96529.66;;;0.77;74.34
70684;BME280;58263;48.146;11.440;2023-01-31T06:21:34;96523.19;;;0.71;74.35
70684;BME280;58263;48.146;11.440;2023-01-31T06:23:59;96525.97;;;0.70;74.34
70684;BME280;58263;48.146;11.440;2023-01-31T06:26:24;96520.38;;;0.73;74.49
70684;BME280;58263;48.146;11.440;2023-01-31T06:28:50;96523.69;;;0.75;74.12
70684;BME280;58263;48.146;11.440;2023-01-31T06:31:15;96520.38;;;0.73;74.47
70684;BME280;58263;48.146;11.440;2023-01-31T06:33:41;96530.31;;;0.79;74.28
70684;BME280;58263;48.146;11.440;2023-01-31T06:36:06;96533.44;;;0.74;74.15
70684;BME280;58263;48.146;11.440;2023-01-31T06:38:32;96540.06;;;0.78;74.28
70684;BME280;58263;48.146;11.440;2023-01-31T06:40:57;96542.56;;;0.80;74.39
70684;BME280;58263;48.146;11.440;2023-01-31T06:43:23;96545.34;;;0.78;74.02
70684;BME280;58263;48.146;11.440;2023-01-31T06:45:48;96554.47;;;0.84;74.02
70684;BME280;58263;48.146;11.440;2023-01-31T06:48:14;96553.13;;;0.80;73.81
70684;BME280;58263;48.146;11.440;2023-01-31T06:50:40;96551.19;;;0.82;73.79
70684;BME280;58263;48.146;11.440;2023-01-31T06:53:06;96553.81;;;0.82;73.87
70684;BME280;58263;48.146;11.440;2023-01-31T06:55:31;96550.31;;;0.81;73.83
70684;BME280;58263;48.146;11.440;2023-01-31T06:57:56;96556.16;;;0.85;73.50
70684;BME280;58263;48.146;11.440;2023-01-31T07:00:22;96567.28;;;0.79;73.66
70684;BME280;58263;48.146;11.440;2023-01-31T07:02:50;96564.81;;;0.77;73.41
70684;BME280;58263;48.146;11.440;2023-01-31T07:05:16;96574.25;;;0.80;73.37
70684;BME280;58263;48.146;11.440;2023-01-31T07:07:41;96578.41;;;0.82;73.52
70684;BME280;58263;48.146;11.440;2023-01-31T07:10:07;96581.34;;;0.79;73.19
70684;BME280;58263;48.146;11.440;2023-01-31T07:12:33;96578.56;;;0.81;73.31
70684;BME280;58263;48.146;11.440;2023-01-31T07:14:58;96579.22;;;0.83;73.15
70684;BME280;58263;48.146;11.440;2023-01-31T07:17:24;96574.78;;;0.83;73.16
70684;BME280;58263;48.146;11.440;2023-01-31T07:19:49;96570.63;;;0.81;72.73
70684;BME280;58263;48.146;11.440;2023-01-31T07:22:15;96570.88;;;0.88;72.75
70684;BME280;58263;48.146;11.440;2023-01-31T07:24:40;96564.38;;;0.82;72.79
70684;BME280;58263;48.146;11.440;2023-01-31T07:27:05;96571.69;;;0.88;72.73
70684;BME280;58263;48.146;11.440;2023-01-31T07:29:31;96569.75;;;0.90;72.52
70684;BME280;58263;48.146;11.440;2023-01-31T07:31:56;96568.63;;;0.93;71.93
70684;BME280;58263;48.146;11.440;2023-01-31T07:34:21;96565.88;;;0.84;72.60
70684;BME280;58263;48.146;11.440;2023-01-31T07:36:50;96562.78;;;0.89;72.55
70684;BME280;58263;48.146;11.440;2023-01-31T07:39:15;96556.16;;;0.85;72.62
70684;BME280;58263;48.146;11.440;2023-01-31T07:41:41;96552.63;;;0.94;72.48
70684;BME280;58263;48.146;11.440;2023-01-31T07:44:07;96564.47;;;0.90;72.52
70684;BME280;58263;48.146;11.440;2023-01-31T07:46:35;96555.84;;;0.88;72.37
70684;BME280;58263;48.146;11.440;2023-01-31T07:49:00;96565.59;;;0.88;72.21
70684;BME280;58263;48.146;11.440;2023-01-31T07:51:25;96561.59;;;1.01;72.29
70684;BME280;58263;48.146;11.440;2023-01-31T07:53:51;96568.41;;;1.04;71.97
70684;BME280;58263;48.146;11.440;2023-01-31T07:56:20;96570.50;;;1.00;71.71
70684;BME280;58263;48.146;11.440;2023-01-31T07:58:47;96569.69;;;1.00;71.70
70684;BME280;58263;48.146;11.440;2023-01-31T08:01:23;96573.91;;;0.93;71.53
70684;BME280;58263;48.146;11.440;2023-01-31T08:04:09;96578.03;;;0.95;71.69
70684;BME280;58263;48.146;11.440;2023-01-31T08:06:35;96571.34;;;1.01;71.34
70684;BME280;58263;48.146;11.440;2023-01-31T08:09:02;96562.97;;;1.06;71.19
70684;BME280;58263;48.146;11.440;2023-01-31T08:11:27;96565.97;;;1.11;71.00
70684;BME280;58263;48.146;11.440;2023-01-31T08:13:53;96560.06;;;1.17;70.67
70684;BME280;58263;48.146;11.440;2023-01-31T08:16:18;96559.81;;;1.20;70.57
70684;BME280;58263;48.146;11.440;2023-01-31T08:18:48;96558.94;;;1.20;70.62
70684;BME280;58263;48.146;11.440;2023-01-31T08:21:14;96568.38;;;1.22;70.45
70684;BME280;58263;48.146;11.440;2023-01-31T08:23:40;96560.84;;;1.27;69.94
70684;BME280;58263;48.146;11.440;2023-01-31T08:26:09;96566.09;;;1.45;69.61
70684;BME280;58263;48.146;11.440;2023-01-31T08:28:36;96562.56;;;1.55;68.91
70684;BME280;58263;48.146;11.440;2023-01-31T08:31:02;96567.75;;;1.64;69.28
70684;BME280;58263;48.146;11.440;2023-01-31T08:33:27;96573.19;;;1.63;68.92
70684;BME280;58263;48.146;11.440;2023-01-31T08:35:53;96559.44;;;1.59;68.93
70684;BME280;58263;48.146;11.440;2023-01-31T08:38:19;96558.69;;;1.67;68.40
70684;BME280;58263;48.146;11.440;2023-01-31T08:40:44;96568.50;;;1.75;68.44
70684;BME280;58263;48.146;11.440;2023-01-31T08:43:10;96563.50;;;1.72;67.99
70684;BME280;58263;48.146;11.440;2023-01-31T08:45:35;96562.78;;;1.88;68.07
70684;BME280;58263;48.146;11.440;2023-01-31T08:48:01;96560.50;;;1.93;67.84
70684;BME280;58263;48.146;11.440;2023-01-31T08:50:29;96562.06;;;2.03;67.08
70684;BME280;58263;48.146;11.440;2023-01-31T08:52:57;96566.41;;;2.13;67.25
70684;BME280;58263;48.146;11.440;2023-01-31T08:55:23;96573.34;;;2.14;66.79
70684;BME280;58263;48.146;11.440;2023-01-31T08:57:50;96565.88;;;2.09;66.17
70684;BME280;58263;48.146;11.440;2023-01-31T09:00:16;96570.75;;;2.22;66.27
70684;BME280;58263;48.146;11.440;2023-01-31T09:02:41;96574.09;;;2.24;66.12
70684;BME280;58263;48.146;11.440;2023-01-31T09:05:07;96569.19;;;2.38;65.79
70684;BME280;58263;48.146;11.440;2023-01-31T09:07:33;96573.22;;;2.50;65.33
70684;BME280;58263;48.146;11.440;2023-01-31T09:09:58;96577.97;;;2.46;65.24
70684;BME280;58263;48.146;11.440;2023-01-31T09:12:24;96570.06;;;2.54;64.84
70684;BME280;58263;48.146;11.440;2023-01-31T09:14:50;96573.28;;;2.75;64.44
70684;BME280;58263;48.146;11.440;2023-01-31T09:17:16;96572.63;;;2.81;63.83
70684;BME280;58263;48.146;11.440;2023-01-31T09:19:41;96572.72;;;2.97;63.87
70684;BME280;58263;48.146;11.440;2023-01-31T09:22:06;96567.75;;;3.11;63.32
70684;BME280;58263;48.146;11.440;2023-01-31T09:24:32;96573.03;;;3.11;62.78
70684;BME280;58263;48.146;11.440;2023-01-31T09:26:57;96566.72;;;2.95;62.84
70684;BME280;58263;48.146;11.440;2023-01-31T09:29:22;96568.75;;;3.01;62.87
70684;BME280;58263;48.146;11.440;2023-01-31T09:31:51;96573.00;;;2.86;62.69
70684;BME280;58263;48.146;11.440;2023-01-31T09:34:17;96577.47;;;2.85;62.69
70684;BME280;58263;48.146;11.440;2023-01-31T09:36:43;96571.03;;;2.88;62.25
70684;BME280;58263;48.146;11.440;2023-01-31T09:39:10;96574.06;;;3.10;62.08
70684;BME280;58263;48.146;11.440;2023-01-31T09:41:40;96581.69;;;3.21;61.41
70684;BME280;58263;48.146;11.440;2023-01-31T09:46:54;96586.22;;;3.53;60.87
70684;BME280;58263;48.146;11.440;2023-01-31T09:49:26;96591.50;;;3.78;60.55
70684;BME280;58263;48.146;11.440;2023-01-31T09:52:00;96572.75;;;3.80;59.94
70684;BME280;58263;48.146;11.440;2023-01-31T09:54:30;96584.69;;;3.92;60.06
70684;BME280;58263;48.146;11.440;2023-01-31T09:57:12;96601.31;;;3.78;60.36
70684;BME280;58263;48.146;11.440;2023-01-31T09:59:48;96587.03;;;3.54;59.89
70684;BME280;58263;48.146;11.440;2023-01-31T10:05:20;96578.41;;;3.35;61.07
70684;BME280;58263;48.146;11.440;2023-01-31T10:08:01;96575.75;;;3.44;58.97
70684;BME280;58263;48.146;11.440;2023-01-31T10:10:50;96571.09;;;3.37;58.69
70684;BME280;58263;48.146;11.440;2023-01-31T10:13:22;96572.44;;;3.50;58.74
70684;BME280;58263;48.146;11.440;2023-01-31T10:16:20;96567.81;;;3.52;59.06
70684;BME280;58263;48.146;11.440;2023-01-31T10:18:49;96557.19;;;3.77;58.67
70684;BME280;58263;48.146;11.440;2023-01-31T10:21:21;96546.88;;;3.98;58.21
70684;BME280;58263;48.146;11.440;2023-01-31T10:26:59;96538.63;;;3.60;57.65
70684;BME280;58263;48.146;11.440;2023-01-31T10:29:51;96552.88;;;3.51;58.10
70684;BME280;58263;48.146;11.440;2023-01-31T10:32:30;96549.56;;;3.41;58.66
70684;BME280;58263;48.146;11.440;2023-01-31T10:35:01;96550.56;;;3.31;59.08
70684;BME280;58263;48.146;11.440;2023-01-31T10:37:36;96538.94;;;3.49;58.20
70684;BME280;58263;48.146;11.440;2023-01-31T10:40:12;96524.34;;;3.45;58.58
70684;BME280;58263;48.146;11.440;2023-01-31T10:42:39;96530.50;;;3.53;59.13
70684;BME280;58263;48.146;11.440;2023-01-31T10:45:15;96537.78;;;3.43;59.36
70684;BME280;58263;48.146;11.440;2023-01-31T10:47:51;96534.78;;;3.46;59.23
70684;BME280;58263;48.146;11.440;2023-01-31T10:50:22;96539.44;;;3.44;59.53
70684;BME280;58263;48.146;11.440;2023-01-31T10:55:46;96526.53;;;3.58;59.94
70684;BME280;58263;48.146;11.440;2023-01-31T10:58:20;96521.03;;;3.59;59.57
70684;BME280;58263;48.146;11.440;2023-01-31T11:00:47;96516.72;;;3.66;59.59
70684;BME280;58263;48.146;11.440;2023-01-31T11:03:13;96507.78;;;3.67;59.52
70684;BME280;58263;48.146;11.440;2023-01-31T11:05:46;96517.06;;;3.63;60.17
70684;BME280;58263;48.146;11.440;2023-01-31T11:08:24;96512.41;;;3.57;60.72
70684;BME280;58263;48.146;11.440;2023-01-31T11:10:53;96505.16;;;3.51;60.39
70684;BME280;58263;48.146;11.440;2023-01-31T11:13:18;96494.22;;;3.29;61.19
70684;BME280;58263;48.146;11.440;2023-01-31T11:15:45;96485.91;;;3.24;61.49
70684;BME280;58263;48.146;11.440;2023-01-31T11:18:25;96478.13;;;3.31;61.57
70684;BME280;58263;48.146;11.440;2023-01-31T11:20:52;96476.31;;;3.23;61.77
70684;BME280;58263;48.146;11.440;2023-01-31T11:23:24;96470.69;;;3.26;61.87
70684;BME280;58263;48.146;11.440;2023-01-31T11:25:52;96458.75;;;3.22;61.92
70684;BME280;58263;48.146;11.440;2023-01-31T11:28:36;96474.81;;;3.04;61.59
70684;BME280;58263;48.146;11.440;2023-01-31T11:31:07;96464.06;;;2.97;61.84
70684;BME280;58263;48.146;11.440;2023-01-31T11:33:43;96466.03;;;3.03;62.18
70684;BME280;58263;48.146;11.440;2023-01-31T11:36:15;96453.47;;;2.97;61.94
70684;BME280;58263;48.146;11.440;2023-01-31T11:38:41;96443.16;;;2.94;62.37
70684;BME280;58263;48.146;11.440;2023-01-31T11:41:30;96437.22;;;3.00;62.10
70684;BME280;58263;48.146;11.440;2023-01-31T11:44:07;96442.88;;;3.06;62.58
70684;BME280;58263;48.146;11.440;2023-01-31T11:49:38;96445.00;;;3.10;62.25
70684;BME280;58263;48.146;11.440;2023-01-31T11:52:19;96440.84;;;3.16;62.14
70684;BME280;58263;48.146;11.440;2023-01-31T11:54:53;96429.91;;;3.02;62.35
70684;BME280;58263;48.146;11.440;2023-01-31T11:57:23;96420.97;;;3.03;62.43
70684;BME280;58263;48.146;11.440;2023-01-31T11:59:52;96415.03;;;3.01;63.03
70684;BME280;58263;48.146;11.440;2023-01-31T12:02:30;96417.34;;;3.21;62.89
70684;BME280;58263;48.146;11.440;2023-01-31T12:04:59;96407.72;;;3.12;62.78
70684;BME280;58263;48.146;11.440;2023-01-31T12:07:27;96395.16;;;2.97;63.13
70684;BME280;58263;48.146;11.440;2023-01-31T12:09:54;96404.75;;;3.07;62.98
70684;BME280;58263;48.146;11.440;2023-01-31T12:12:29;96395.81;;;2.99;63.18
70684;BME280;58263;48.146;11.440;2023-01-31T12:15:11;96394.63;;;3.18;63.08
70684;BME280;58263;48.146;11.440;2023-01-31T12:17:43;96384.88;;;3.11;62.86
70684;BME280;58263;48.146;11.440;2023-01-31T12:20:22;96386.53;;;3.03;63.39
70684;BME280;58263;48.146;11.440;2023-01-31T12:26:20;96398.78;;;3.13;63.41
70684;BME280;58263;48.146;11.440;2023-01-31T12:31:17;96409.72;;;3.10;64.03
70684;BME280;58263;48.146;11.440;2023-01-31T12:34:05;96391.19;;;3.10;63.83
70684;BME280;58263;48.146;11.440;2023-01-31T12:39:51;96378.25;;;3.07;63.98
70684;BME280;58263;48.146;11.440;2023-01-31T12:42:27;96372.28;;;3.13;63.73
70684;BME280;58263;48.146;11.440;2023-01-31T12:45:13;96358.69;;;3.16;63.54
70684;BME280;58263;48.146;11.440;2023-01-31T12:50:31;96364.97;;;3.31;63.34
70684;BME280;58263;48.146;11.440;2023-01-31T13:03:51;96370.47;;;4.40;60.67
70684;BME280;58263;48.146;11.440;2023-01-31T13:06:25;96358.69;;;4.58;60.36
70684;BME280;58263;48.146;11.440;2023-01-31T13:08:59;96351.81;;;4.72;59.53
70684;BME280;58263;48.146;11.440;2023-01-31T13:11:31;96336.19;;;4.69;59.86
70684;BME280;58263;48.146;11.440;2023-01-31T13:14:03;96331.19;;;4.74;59.07
70684;BME280;58263;48.146;11.440;2023-01-31T13:16:30;96334.31;;;4.78;59.06
70684;BME280;58263;48.146;11.440;2023-01-31T13:19:06;96330.19;;;4.75;58.62
70684;BME280;58263;48.146;11.440;2023-01-31T13:21:44;96331.09;;;4.82;59.13
70684;BME280;58263;48.146;11.440;2023-01-31T13:24:20;96346.25;;;4.82;58.93
70684;BME280;58263;48.146;11.440;2023-01-31T13:26:49;96341.19;;;4.49;59.34
70684;BME280;58263;48.146;11.440;2023-01-31T13:29:24;96326.63;;;4.83;58.91
70684;BME280;58263;48.146;11.440;2023-01-31T13:32:02;96310.84;;;4.66;59.05
70684;BME280;58263;48.146;11.440;2023-01-31T13:34:44;96302.81;;;4.51;59.55
70684;BME280;58263;48.146;11.440;2023-01-31T13:37:14;96298.63;;;4.34;59.49
70684;BME280;58263;48.146;11.440;2023-01-31T13:39:49;96289.13;;;4.16;60.01
70684;BME280;58263;48.146;11.440;2023-01-31T13:42:15;96292.88;;;3.99;60.70
70684;BME280;58263;48.146;11.440;2023-01-31T13:44:41;96292.72;;;4.00;60.32
70684;BME280;58263;48.146;11.440;2023-01-31T13:47:15;96283.63;;;3.95;60.98
70684;BME280;58263;48.146;11.440;2023-01-31T13:49:47;96285.06;;;3.74;61.32
70684;BME280;58263;48.146;11.440;2023-01-31T13:54:51;96284.94;;;3.67;61.46
70684;BME280;58263;48.146;11.440;2023-01-31T13:57:33;96283.97;;;3.60;61.36
70684;BME280;58263;48.146;11.440;2023-01-31T14:00:29;96286.91;;;3.65;61.29
70684;BME280;58263;48.146;11.440;2023-01-31T14:03:03;96300.22;;;3.57;61.58
70684;BME280;58263;48.146;11.440;2023-01-31T14:05:59;96283.63;;;3.63;61.39
70684;BME280;58263;48.146;11.440;2023-01-31T14:08:37;96283.66;;;3.55;61.42
70684;BME280;58263;48.146;11.440;2023-01-31T14:13:48;96288.84;;;3.48;61.59
70684;BME280;58263;48.146;11.440;2023-01-31T14:16:34;96287.50;;;3.52;61.99
70684;BME280;58263;48.146;11.440;2023-01-31T14:19:02;96280.38;;;3.45;61.71
70684;BME280;58263;48.146;11.440;2023-01-31T14:23:54;96295.63;;;3.51;61.94
70684;BME280;58263;48.146;11.440;2023-01-31T14:29:08;96277.09;;;3.43;61.85